createdAt,value
2017-11-24T00:00:57.410Z,9.64
2017-11-24T00:02:02.212Z,9.65
2017-11-24T00:03:07.018Z,9.63
2017-11-24T00:04:11.938Z,9.57
2017-11-24T00:05:16.575Z,9.55
2017-11-24T00:06:21.180Z,9.49
2017-11-24T00:07:25.830Z,9.47
2017-11-24T00:08:30.510Z,9.54
2017-11-24T00:09:35.335Z,9.55
2017-11-24T00:10:40.730Z,9.46
2017-11-24T00:11:45.582Z,9.53
2017-11-24T00:12:50.368Z,9.51
2017-11-24T00:13:55.180Z,9.44
2017-11-24T00:15:00.110Z,9.47
2017-11-24T00:16:04.899Z,9.37
2017-11-24T00:17:10.294Z,9.36
2017-11-24T00:18:15.163Z,9.27
2017-11-24T00:19:20.132Z,9.31
2017-11-24T00:20:24.974Z,9.35
2017-11-24T00:21:29.723Z,9.17
2017-11-24T00:22:34.517Z,9.32
2017-11-24T00:23:39.718Z,9.36
2017-11-24T00:24:44.546Z,9.32
2017-11-24T00:25:49.385Z,9.37
2017-11-24T00:26:54.128Z,9.37
2017-11-24T00:27:58.879Z,9.47
2017-11-24T00:29:03.676Z,9.46
2017-11-24T00:30:08.731Z,9.52
2017-11-24T00:31:13.618Z,9.47
2017-11-24T00:32:18.405Z,9.51
2017-11-24T00:33:23.147Z,9.47
2017-11-24T00:34:27.938Z,9.40
2017-11-24T00:35:32.738Z,9.45
2017-11-24T00:36:37.867Z,9.42
2017-11-24T00:37:43.794Z,9.44
2017-11-24T00:38:48.569Z,9.40
2017-11-24T00:39:53.330Z,9.44
2017-11-24T00:40:58.154Z,9.41
2017-11-24T00:42:02.958Z,9.48
2017-11-24T00:43:08.070Z,9.48
2017-11-24T00:44:12.855Z,9.44
2017-11-24T00:45:17.706Z,9.44
2017-11-24T00:46:22.494Z,9.42
2017-11-24T00:47:27.279Z,9.35
2017-11-24T00:48:32.054Z,9.35
2017-11-24T00:49:37.147Z,9.38
2017-11-24T00:50:42.027Z,9.39
2017-11-24T00:51:46.889Z,9.31
2017-11-24T00:52:51.685Z,9.23
2017-11-24T00:53:56.431Z,9.12
2017-11-24T00:55:01.278Z,9.21
2017-11-24T00:56:06.339Z,9.35
2017-11-24T00:57:11.165Z,9.04
2017-11-24T00:58:16.564Z,8.96
2017-11-24T00:59:21.374Z,9.04
2017-11-24T01:00:26.200Z,9.15
2017-11-24T01:01:30.970Z,9.31
2017-11-24T01:02:36.097Z,9.41
2017-11-24T01:03:41.150Z,9.38
2017-11-24T01:04:45.907Z,9.27
2017-11-24T01:05:50.688Z,9.25
2017-11-24T01:06:55.533Z,9.36
2017-11-24T01:08:00.261Z,9.44
2017-11-24T01:09:05.680Z,9.44
2017-11-24T01:10:10.395Z,9.40
2017-11-24T01:11:15.109Z,9.44
2017-11-24T01:12:19.854Z,9.44
2017-11-24T01:13:24.607Z,9.43
2017-11-24T01:14:29.326Z,9.40
2017-11-24T01:15:34.447Z,9.37
2017-11-24T01:16:39.189Z,9.41
2017-11-24T01:17:43.979Z,9.14
2017-11-24T01:18:48.700Z,9.28
2017-11-24T01:19:53.437Z,9.46
2017-11-24T01:20:58.908Z,9.46
2017-11-24T01:22:03.896Z,9.25
2017-11-24T01:23:08.607Z,9.41
2017-11-24T01:24:13.283Z,9.38
2017-11-24T01:25:18.035Z,9.44
2017-11-24T01:26:22.607Z,9.44
2017-11-24T01:27:27.141Z,9.41
2017-11-24T01:28:31.996Z,9.30
2017-11-24T01:29:36.639Z,9.32
2017-11-24T01:30:41.248Z,9.15
2017-11-24T01:31:45.803Z,9.08
2017-11-24T01:32:50.337Z,9.12
2017-11-24T01:33:54.891Z,9.10
2017-11-24T01:34:59.708Z,9.14
2017-11-24T01:36:04.289Z,9.01
2017-11-24T01:37:08.885Z,9.15
2017-11-24T01:38:13.700Z,9.33
2017-11-24T01:39:18.518Z,9.43
2017-11-24T01:40:23.322Z,9.41
2017-11-24T01:41:28.155Z,9.29
2017-11-24T01:42:32.958Z,9.12
2017-11-24T01:43:38.017Z,9.05
2017-11-24T01:44:42.833Z,8.94
2017-11-24T01:45:47.516Z,8.88
2017-11-24T01:46:52.159Z,8.90
2017-11-24T01:47:57.317Z,9.03
2017-11-24T01:49:01.952Z,8.93
2017-11-24T01:50:06.576Z,8.89
2017-11-24T01:51:11.565Z,8.95
2017-11-24T01:52:16.323Z,9.03
2017-11-24T01:53:21.117Z,9.10
2017-11-24T01:54:26.221Z,9.15
2017-11-24T01:55:30.970Z,8.98
2017-11-24T01:56:35.782Z,8.99
2017-11-24T01:57:40.544Z,8.94
2017-11-24T01:58:45.139Z,8.96
2017-11-24T01:59:49.757Z,8.91
2017-11-24T02:00:54.907Z,8.99
2017-11-24T02:01:59.491Z,8.97
2017-11-24T02:03:04.091Z,9.02
2017-11-24T02:04:08.705Z,8.95
2017-11-24T02:05:13.223Z,9.04
2017-11-24T02:06:17.672Z,8.99
2017-11-24T02:07:22.386Z,8.94
2017-11-24T02:08:26.874Z,9.02
2017-11-24T02:09:31.317Z,9.14
2017-11-24T02:10:35.740Z,9.24
2017-11-24T02:11:40.204Z,9.25
2017-11-24T02:12:44.768Z,9.28
2017-11-24T02:13:49.602Z,9.44
2017-11-24T02:14:54.249Z,9.47
2017-11-24T02:15:59.061Z,9.38
2017-11-24T02:17:03.863Z,9.24
2017-11-24T02:18:09.254Z,9.33
2017-11-24T02:19:14.030Z,9.36
2017-11-24T02:20:19.077Z,9.28
2017-11-24T02:21:23.877Z,9.39
2017-11-24T02:22:28.702Z,9.51
2017-11-24T02:23:33.507Z,9.33
2017-11-24T02:24:38.234Z,9.28
2017-11-24T02:25:43.093Z,9.20
2017-11-24T02:26:48.275Z,9.39
2017-11-24T02:27:52.961Z,9.17
2017-11-24T02:28:57.882Z,9.18
2017-11-24T02:30:03.585Z,9.21
2017-11-24T02:31:08.424Z,9.15
2017-11-24T02:32:13.111Z,9.31
2017-11-24T02:33:18.171Z,9.21
2017-11-24T02:34:22.878Z,9.38
2017-11-24T02:35:27.543Z,9.44
2017-11-24T02:36:32.264Z,9.35
2017-11-24T02:37:36.893Z,9.43
2017-11-24T02:38:41.571Z,9.44
2017-11-24T02:39:46.529Z,9.46
2017-11-24T02:40:51.171Z,9.50
2017-11-24T02:41:55.807Z,9.48
2017-11-24T02:43:00.554Z,9.44
2017-11-24T02:44:05.293Z,9.56
2017-11-24T02:45:09.987Z,9.36
2017-11-24T02:46:14.952Z,9.53
2017-11-24T02:47:19.621Z,9.61
2017-11-24T02:48:24.252Z,9.60
2017-11-24T02:49:28.905Z,9.60
2017-11-24T02:50:33.678Z,9.65
2017-11-24T02:51:38.416Z,9.70
2017-11-24T02:52:43.385Z,9.73
2017-11-24T02:53:48.094Z,9.72
2017-11-24T02:54:52.813Z,9.86
2017-11-24T02:55:57.491Z,9.77
2017-11-24T02:57:02.240Z,9.72
2017-11-24T02:58:06.937Z,9.79
2017-11-24T02:59:12.080Z,9.94
2017-11-24T03:00:16.960Z,9.87
2017-11-24T03:01:21.734Z,9.94
2017-11-24T03:02:26.550Z,10.05
2017-11-24T03:03:31.355Z,10.18
2017-11-24T03:04:36.113Z,10.06
2017-11-24T03:05:41.160Z,10.21
2017-11-24T03:06:45.888Z,10.18
2017-11-24T03:07:50.778Z,10.46
2017-11-24T03:08:55.506Z,10.38
2017-11-24T03:10:00.313Z,10.38
2017-11-24T03:11:05.156Z,10.36
2017-11-24T03:12:10.210Z,10.31
2017-11-24T03:13:15.951Z,10.35
2017-11-24T03:14:21.683Z,10.43
2017-11-24T03:15:26.534Z,10.52
2017-11-24T03:16:31.296Z,10.54
2017-11-24T03:17:36.028Z,10.50
2017-11-24T03:18:41.190Z,10.42
2017-11-24T03:19:45.948Z,10.50
2017-11-24T03:20:50.968Z,10.44
2017-11-24T03:21:55.733Z,10.42
2017-11-24T03:23:01.325Z,10.40
2017-11-24T03:24:06.111Z,10.75
2017-11-24T03:25:11.422Z,10.67
2017-11-24T03:26:16.209Z,10.62
2017-11-24T03:27:21.078Z,10.61
2017-11-24T03:28:25.866Z,10.70
2017-11-24T03:29:30.682Z,10.79
2017-11-24T03:30:35.471Z,10.76
2017-11-24T03:31:40.489Z,10.66
2017-11-24T03:32:45.248Z,10.70
2017-11-24T03:33:49.961Z,10.72
2017-11-24T03:34:54.802Z,10.78
2017-11-24T03:35:59.564Z,10.73
2017-11-24T03:37:04.576Z,10.75
2017-11-24T03:38:09.715Z,10.82
2017-11-24T03:39:14.554Z,10.64
2017-11-24T03:40:19.793Z,10.72
2017-11-24T03:41:25.199Z,10.82
2017-11-24T03:42:30.050Z,10.69
2017-11-24T03:43:34.948Z,10.67
2017-11-24T03:44:39.977Z,10.75
2017-11-24T03:45:44.848Z,10.81
2017-11-24T03:46:49.707Z,10.87
2017-11-24T03:47:54.472Z,10.83
2017-11-24T03:48:59.399Z,10.84
2017-11-24T03:50:04.266Z,10.85
2017-11-24T03:51:09.417Z,10.82
2017-11-24T03:52:14.227Z,10.80
2017-11-24T03:53:19.102Z,10.85
2017-11-24T03:54:23.836Z,10.80
2017-11-24T03:55:28.585Z,10.84
2017-11-24T03:56:33.377Z,10.83
2017-11-24T03:57:38.453Z,10.77
2017-11-24T03:58:43.210Z,10.94
2017-11-24T03:59:48.926Z,11.03
2017-11-24T04:00:53.453Z,11.03
2017-11-24T04:01:58.224Z,10.84
2017-11-24T04:03:03.304Z,10.86
2017-11-24T04:04:08.077Z,10.94
2017-11-24T04:05:12.658Z,10.86
2017-11-24T04:06:17.315Z,10.91
2017-11-24T04:07:22.965Z,10.86
2017-11-24T04:08:27.479Z,10.89
2017-11-24T04:09:32.495Z,10.95
2017-11-24T04:10:37.098Z,10.97
2017-11-24T04:11:41.698Z,10.95
2017-11-24T04:12:46.488Z,10.93
2017-11-24T04:13:51.120Z,10.95
2017-11-24T04:14:55.654Z,10.88
2017-11-24T04:16:00.538Z,10.98
2017-11-24T04:17:05.190Z,11.02
2017-11-24T04:18:09.799Z,10.93
2017-11-24T04:19:14.470Z,10.86
2017-11-24T04:20:19.025Z,10.97
2017-11-24T04:21:23.732Z,10.92
2017-11-24T04:22:28.725Z,11.01
2017-11-24T04:23:33.548Z,10.99
2017-11-24T04:24:38.504Z,10.95
2017-11-24T04:25:43.124Z,11.01
2017-11-24T04:26:47.794Z,10.95
2017-11-24T04:27:52.556Z,10.92
2017-11-24T04:28:57.617Z,10.93
2017-11-24T04:30:02.457Z,10.92
2017-11-24T04:31:07.266Z,10.87
2017-11-24T04:32:12.148Z,10.97
2017-11-24T04:33:16.977Z,10.92
2017-11-24T04:34:21.751Z,10.96
2017-11-24T04:35:26.768Z,10.98
2017-11-24T04:36:31.504Z,10.97
2017-11-24T04:37:36.219Z,10.93
2017-11-24T04:38:41.089Z,10.98
2017-11-24T04:39:46.043Z,11.09
2017-11-24T04:40:50.983Z,11.03
2017-11-24T04:41:56.170Z,11.07
2017-11-24T04:43:00.974Z,11.05
2017-11-24T04:44:05.833Z,11.10
2017-11-24T04:45:10.689Z,11.08
2017-11-24T04:46:15.494Z,11.02
2017-11-24T04:47:20.979Z,11.19
2017-11-24T04:48:26.206Z,11.25
2017-11-24T04:49:31.161Z,11.12
2017-11-24T04:50:35.913Z,11.18
2017-11-24T04:51:40.689Z,11.18
2017-11-24T04:52:45.525Z,11.18
2017-11-24T04:53:50.356Z,11.10
2017-11-24T04:54:55.553Z,11.17
2017-11-24T04:56:00.326Z,11.15
2017-11-24T04:57:05.173Z,11.22
2017-11-24T04:58:10.093Z,11.31
2017-11-24T04:59:14.917Z,11.18
2017-11-24T05:15:20.325Z,11.31
2017-11-24T05:16:25.159Z,11.28
2017-11-24T05:17:29.930Z,11.25
2017-11-24T05:18:34.617Z,11.36
2017-11-24T05:19:39.336Z,11.32
2017-11-24T05:20:44.324Z,11.28
2017-11-24T05:21:49.038Z,11.40
2017-11-24T05:22:53.842Z,11.24
2017-11-24T05:23:58.605Z,11.27
2017-11-24T05:25:03.468Z,11.25
2017-11-24T05:26:08.238Z,11.22
2017-11-24T05:27:13.238Z,11.29
2017-11-24T05:28:18.005Z,11.31
2017-11-24T05:29:22.884Z,11.27
2017-11-24T05:30:27.687Z,11.38
2017-11-24T05:31:32.436Z,11.37
2017-11-24T05:32:38.250Z,11.44
2017-11-24T05:33:43.349Z,11.37
2017-11-24T05:34:48.261Z,11.33
2017-11-24T05:35:53.137Z,11.31
2017-11-24T05:36:57.914Z,11.31
2017-11-24T05:38:02.803Z,11.34
2017-11-24T05:39:07.544Z,11.37
2017-11-24T05:40:12.634Z,11.26
2017-11-24T05:41:17.440Z,11.26
2017-11-24T05:42:22.238Z,11.35
2017-11-24T05:43:27.006Z,11.36
2017-11-24T05:44:31.781Z,11.35
2017-11-24T05:45:36.617Z,11.31
2017-11-24T05:46:41.915Z,11.21
2017-11-24T05:47:46.705Z,11.16
2017-11-24T05:48:52.376Z,11.16
2017-11-24T05:49:57.235Z,11.18
2017-11-24T05:51:02.033Z,11.20
2017-11-24T05:52:06.884Z,11.26
2017-11-24T05:53:11.920Z,11.18
2017-11-24T05:54:16.739Z,11.16
2017-11-24T05:55:21.687Z,11.25
2017-11-24T05:56:26.397Z,11.32
2017-11-24T05:57:31.205Z,11.22
2017-11-24T05:58:36.538Z,11.24
2017-11-24T05:59:42.046Z,11.28
2017-11-24T06:00:46.945Z,11.31
2017-11-24T06:01:51.696Z,11.31
2017-11-24T06:02:56.543Z,11.25
2017-11-24T06:04:01.246Z,11.28
2017-11-24T06:05:06.079Z,11.32
2017-11-24T06:06:11.737Z,11.34
2017-11-24T06:07:16.730Z,11.40
2017-11-24T06:08:21.617Z,11.43
2017-11-24T06:09:26.405Z,11.30
2017-11-24T06:10:31.253Z,11.39
2017-11-24T06:11:36.020Z,11.41
2017-11-24T06:12:41.217Z,11.35
2017-11-24T06:13:46.017Z,11.32
2017-11-24T06:14:50.817Z,11.25
2017-11-24T06:15:56.354Z,11.29
2017-11-24T06:17:01.299Z,11.36
2017-11-24T06:18:06.000Z,11.35
2017-11-24T06:19:11.090Z,11.38
2017-11-24T06:20:15.998Z,11.37
2017-11-24T06:21:20.822Z,11.42
2017-11-24T06:22:25.576Z,11.37
2017-11-24T06:23:30.375Z,11.36
2017-11-24T06:24:35.323Z,11.35
2017-11-24T06:25:40.437Z,11.43
2017-11-24T06:26:45.233Z,11.44
2017-11-24T06:27:50.031Z,11.43
2017-11-24T06:28:54.735Z,11.59
2017-11-24T06:29:59.491Z,11.53
2017-11-24T06:31:04.440Z,11.48
2017-11-24T06:32:09.416Z,11.42
2017-11-24T06:33:14.135Z,11.44
2017-11-24T06:34:18.939Z,11.45
2017-11-24T06:35:23.742Z,11.36
2017-11-24T06:36:28.462Z,11.34
2017-11-24T06:37:33.173Z,11.38
2017-11-24T06:38:38.332Z,11.44
2017-11-24T06:39:43.106Z,11.45
2017-11-24T06:40:47.976Z,11.49
2017-11-24T06:41:52.892Z,11.48
2017-11-24T06:42:57.552Z,11.44
2017-11-24T06:44:02.490Z,11.35
2017-11-24T06:45:07.888Z,11.31
2017-11-24T06:46:12.572Z,11.37
2017-11-24T06:47:17.384Z,11.44
2017-11-24T06:48:22.077Z,11.37
2017-11-24T06:49:26.767Z,11.43
2017-11-24T06:50:31.491Z,11.45
2017-11-24T06:51:36.487Z,11.57
2017-11-24T06:52:41.170Z,11.44
2017-11-24T06:53:45.944Z,11.44
2017-11-24T06:54:50.688Z,11.41
2017-11-24T06:55:55.661Z,11.44
2017-11-24T06:57:00.495Z,11.51
2017-11-24T06:58:05.696Z,11.44
2017-11-24T06:59:10.431Z,11.53
2017-11-24T07:00:15.305Z,11.62
2017-11-24T07:01:20.268Z,11.57
2017-11-24T07:02:25.291Z,11.46
2017-11-24T07:03:30.146Z,11.53
2017-11-24T07:04:34.978Z,11.58
2017-11-24T07:05:39.870Z,11.61
2017-11-24T07:06:46.892Z,11.58
2017-11-24T07:07:51.590Z,11.55
2017-11-24T07:08:56.296Z,11.61
2017-11-24T07:10:01.529Z,11.58
2017-11-24T07:11:06.270Z,11.53
2017-11-24T07:12:11.051Z,11.58
2017-11-24T07:13:15.758Z,11.58
2017-11-24T07:14:20.504Z,11.64
2017-11-24T07:15:25.241Z,11.59
2017-11-24T07:16:30.305Z,11.56
2017-11-24T07:17:36.017Z,11.52
2017-11-24T07:18:40.807Z,11.58
2017-11-24T07:19:45.688Z,11.60
2017-11-24T07:20:50.470Z,11.65
2017-11-24T07:21:55.320Z,11.56
2017-11-24T07:23:00.404Z,11.64
2017-11-24T07:24:06.076Z,11.70
2017-11-24T07:25:11.422Z,11.66
2017-11-24T07:26:16.290Z,11.75
2017-11-24T07:27:21.159Z,11.70
2017-11-24T07:28:26.139Z,11.61
2017-11-24T07:29:31.297Z,11.70
2017-11-24T07:30:36.085Z,11.65
2017-11-24T07:31:40.813Z,11.59
2017-11-24T07:32:45.601Z,11.65
2017-11-24T07:33:50.371Z,11.65
2017-11-24T07:34:55.136Z,11.64
2017-11-24T07:36:00.319Z,11.70
2017-11-24T07:37:05.101Z,11.65
2017-11-24T07:38:09.845Z,11.61
2017-11-24T07:39:14.822Z,11.65
2017-11-24T07:40:19.575Z,11.61
2017-11-24T07:41:24.461Z,11.53
2017-11-24T07:42:29.558Z,11.52
2017-11-24T07:43:34.327Z,11.53
2017-11-24T07:44:39.248Z,11.51
2017-11-24T07:45:44.038Z,11.52
2017-11-24T07:46:48.906Z,11.58
2017-11-24T07:47:54.397Z,11.60
2017-11-24T07:48:59.562Z,11.56
2017-11-24T07:50:04.863Z,11.50
2017-11-24T07:51:09.706Z,11.55
2017-11-24T07:52:14.538Z,11.55
2017-11-24T07:53:19.265Z,11.46
2017-11-24T07:54:24.051Z,11.46
2017-11-24T07:55:29.152Z,11.45
2017-11-24T07:56:33.954Z,11.48
2017-11-24T07:57:38.711Z,11.39
2017-11-24T07:58:43.366Z,11.47
2017-11-24T07:59:48.017Z,11.43
2017-11-24T08:00:52.804Z,11.44
2017-11-24T08:01:57.887Z,11.49
2017-11-24T08:03:02.687Z,11.49
2017-11-24T08:04:07.405Z,11.50
2017-11-24T08:05:12.184Z,11.47
2017-11-24T08:06:16.881Z,11.49
2017-11-24T08:07:22.831Z,11.51
2017-11-24T08:08:27.898Z,11.54
2017-11-24T08:09:32.673Z,11.52
2017-11-24T08:10:37.388Z,11.57
2017-11-24T08:11:42.103Z,11.52
2017-11-24T08:12:46.796Z,11.58
2017-11-24T08:13:51.456Z,11.51
2017-11-24T08:14:56.485Z,11.54
2017-11-24T08:16:01.229Z,11.54
2017-11-24T08:17:06.226Z,11.48
2017-11-24T08:18:10.747Z,11.50
2017-11-24T08:19:15.271Z,11.53
2017-11-24T08:20:19.820Z,11.47
2017-11-24T08:21:25.648Z,11.52
2017-11-24T08:22:30.387Z,11.44
2017-11-24T08:23:35.234Z,11.53
2017-11-24T08:24:39.978Z,11.47
2017-11-24T08:25:44.743Z,11.38
2017-11-24T08:26:49.483Z,11.42
2017-11-24T08:27:55.687Z,11.45
2017-11-24T08:29:00.430Z,11.46
2017-11-24T08:30:04.831Z,11.40
2017-11-24T08:31:09.565Z,11.43
2017-11-24T08:32:14.438Z,11.51
2017-11-24T08:33:19.199Z,11.45
2017-11-24T08:34:24.267Z,11.45
2017-11-24T08:35:28.987Z,11.46
2017-11-24T08:36:34.126Z,11.45
2017-11-24T08:37:38.826Z,11.48
2017-11-24T08:38:43.591Z,11.52
2017-11-24T08:39:48.366Z,11.49
2017-11-24T08:40:53.664Z,11.47
2017-11-24T08:41:59.221Z,11.45
2017-11-24T08:43:04.010Z,11.45
2017-11-24T08:44:08.825Z,11.51
2017-11-24T08:45:13.666Z,11.54
2017-11-24T08:46:22.537Z,11.50
2017-11-24T08:47:31.632Z,11.51
2017-11-24T08:50:44.348Z,11.44
2017-11-24T08:51:49.008Z,11.45
2017-11-24T08:52:53.690Z,11.44
2017-11-24T08:53:58.483Z,11.45
2017-11-24T08:55:03.175Z,11.46
2017-11-24T08:56:07.842Z,11.47
2017-11-24T08:57:13.158Z,11.37
2017-11-24T08:58:17.793Z,11.27
2017-11-24T08:59:22.405Z,11.40
2017-11-24T09:00:27.271Z,11.39
2017-11-24T09:01:31.946Z,11.39
2017-11-24T09:02:36.600Z,11.36
2017-11-24T09:03:41.209Z,11.35
2017-11-24T09:04:45.791Z,11.40
2017-11-24T09:05:50.373Z,11.40
2017-11-24T09:06:55.398Z,11.48
2017-11-24T09:08:00.021Z,11.43
2017-11-24T09:09:05.326Z,11.40
2017-11-24T09:10:10.112Z,11.40
2017-11-24T09:11:15.032Z,11.36
2017-11-24T09:12:19.772Z,11.35
2017-11-24T09:13:24.800Z,11.39
2017-11-24T09:14:29.908Z,11.42
2017-11-24T09:15:34.645Z,11.41
2017-11-24T09:16:40.120Z,11.47
2017-11-24T09:17:46.213Z,11.35
2017-11-24T09:18:51.171Z,11.46
2017-11-24T09:19:56.125Z,11.52
2017-11-24T09:21:00.849Z,11.36
2017-11-24T09:22:05.802Z,11.46
2017-11-24T09:23:10.541Z,11.32
2017-11-24T09:24:15.327Z,11.42
2017-11-24T09:25:20.031Z,11.48
2017-11-24T09:26:25.213Z,11.49
2017-11-24T09:27:30.275Z,11.42
2017-11-24T09:28:35.117Z,11.33
2017-11-24T09:29:39.931Z,11.34
2017-11-24T09:30:44.806Z,11.33
2017-11-24T09:31:50.415Z,11.34
2017-11-24T09:32:55.469Z,11.21
2017-11-24T09:34:00.286Z,11.09
2017-11-24T09:35:05.158Z,11.21
2017-11-24T09:36:10.000Z,11.22
2017-11-24T09:37:14.795Z,11.20
2017-11-24T09:38:19.720Z,11.07
2017-11-24T09:39:24.816Z,11.05
2017-11-24T09:40:29.618Z,11.10
2017-11-24T09:41:34.417Z,11.02
2017-11-24T09:42:39.173Z,11.15
2017-11-24T09:43:43.815Z,10.98
2017-11-24T09:44:48.494Z,11.01
2017-11-24T09:45:53.454Z,10.86
2017-11-24T09:46:58.060Z,10.83
2017-11-24T09:48:02.744Z,10.61
2017-11-24T11:15:40.565Z,9.04
2017-11-24T11:16:45.120Z,9.16
2017-11-24T11:17:49.966Z,9.24
2017-11-24T11:18:54.477Z,9.15
2017-11-24T11:19:59.154Z,8.98
2017-11-24T11:21:04.203Z,8.91
2017-11-24T11:22:10.059Z,8.82
2017-11-24T11:23:14.922Z,8.89
2017-11-24T11:24:19.700Z,8.98
2017-11-24T11:25:24.421Z,9.14
2017-11-24T11:26:29.187Z,8.85
2017-11-24T11:27:34.184Z,9.01
2017-11-24T11:28:39.161Z,8.98
2017-11-24T11:29:44.210Z,8.84
2017-11-24T11:30:49.278Z,8.93
2017-11-24T11:31:54.689Z,8.96
2017-11-24T11:32:59.431Z,8.99
2017-11-24T11:34:04.616Z,8.80
2017-11-24T11:35:09.359Z,8.81
2017-11-24T11:36:14.156Z,8.84
2017-11-24T11:37:19.739Z,8.71
2017-11-24T11:38:24.533Z,8.80
2017-11-24T11:39:29.394Z,8.80
2017-11-24T11:40:34.430Z,8.85
2017-11-24T11:41:39.131Z,8.88
2017-11-24T11:42:43.980Z,8.98
2017-11-24T11:43:48.732Z,8.77
2017-11-24T11:44:53.441Z,8.93
2017-11-24T11:45:58.459Z,9.01
2017-11-24T11:47:03.447Z,8.80
2017-11-24T11:48:08.158Z,8.99
2017-11-24T11:49:13.090Z,8.85
2017-11-24T11:50:17.809Z,8.84
2017-11-24T11:51:22.519Z,9.00
2017-11-24T11:52:27.280Z,9.08
2017-11-24T11:53:32.486Z,8.98
2017-11-24T11:54:39.045Z,8.80
2017-11-24T11:55:43.842Z,9.01
2017-11-24T11:56:48.562Z,8.88
2017-11-24T11:57:53.284Z,8.92
2017-11-24T11:58:58.061Z,8.85
2017-11-24T12:00:03.256Z,8.84
2017-11-24T12:01:07.980Z,8.80
2017-11-24T12:02:12.851Z,8.81
2017-11-24T12:03:17.601Z,8.79
2017-11-24T12:04:22.308Z,8.78
2017-11-24T12:05:27.924Z,8.88
2017-11-24T12:06:33.058Z,8.92
2017-11-24T12:07:38.655Z,8.86
2017-11-24T12:08:43.510Z,8.80
2017-11-24T12:09:48.550Z,8.95
2017-11-24T12:10:53.485Z,8.97
2017-11-24T12:11:58.204Z,8.83
2017-11-24T12:13:03.341Z,9.01
2017-11-24T12:14:08.065Z,9.03
2017-11-24T12:15:12.781Z,9.04
2017-11-24T12:16:17.497Z,9.08
2017-11-24T12:17:22.434Z,9.06
2017-11-24T12:18:27.270Z,8.98
2017-11-24T12:19:32.533Z,8.88
2017-11-24T12:20:37.292Z,8.78
2017-11-24T12:21:42.247Z,8.97
2017-11-24T12:22:47.105Z,9.06
2017-11-24T12:23:51.861Z,8.84
2017-11-24T12:24:56.605Z,8.76
2017-11-24T12:26:01.703Z,8.76
2017-11-24T12:27:06.727Z,8.74
2017-11-24T12:28:11.559Z,8.77
2017-11-24T12:29:16.705Z,8.81
2017-11-24T12:30:21.512Z,8.83
2017-11-24T12:31:26.911Z,8.67
2017-11-24T12:32:31.653Z,8.72
2017-11-24T12:33:36.601Z,8.73
2017-11-24T12:34:41.358Z,8.60
2017-11-24T12:35:46.139Z,8.82
2017-11-24T12:36:50.779Z,8.67
2017-11-24T12:37:56.197Z,8.76
2017-11-24T12:39:01.304Z,8.74
2017-11-24T12:40:06.319Z,8.51
2017-11-24T12:41:11.148Z,8.66
2017-11-24T12:42:16.420Z,8.76
2017-11-24T12:43:21.650Z,8.70
2017-11-24T12:44:27.070Z,8.61
2017-11-24T12:45:32.169Z,8.44
2017-11-24T12:46:37.326Z,8.53
2017-11-24T12:47:42.736Z,8.43
2017-11-24T12:48:47.770Z,8.62
2017-11-24T12:49:53.120Z,8.49
2017-11-24T12:50:58.650Z,8.66
2017-11-24T12:52:03.765Z,8.52
2017-11-24T12:53:08.857Z,8.37
2017-11-24T12:54:13.949Z,8.61
2017-11-24T12:55:18.836Z,8.70
2017-11-24T12:56:23.873Z,8.46
2017-11-24T12:57:29.169Z,8.44
2017-11-24T12:58:34.217Z,8.52
2017-11-24T12:59:39.314Z,8.61
2017-11-24T13:00:44.542Z,8.51
2017-11-24T13:01:49.936Z,8.43
2017-11-24T13:02:54.973Z,8.58
2017-11-24T13:04:00.579Z,8.56
2017-11-24T13:05:05.856Z,8.47
2017-11-24T13:06:11.182Z,8.41
2017-11-24T13:07:16.277Z,8.57
2017-11-24T13:08:21.430Z,8.65
2017-11-24T13:09:26.896Z,8.50
2017-11-24T13:10:32.395Z,8.52
2017-11-24T13:11:37.488Z,8.58
2017-11-24T13:12:42.644Z,8.26
2017-11-24T13:13:47.896Z,8.45
2017-11-24T13:14:53.021Z,8.49
2017-11-24T13:15:58.062Z,8.46
2017-11-24T13:17:03.668Z,8.36
2017-11-24T13:18:08.831Z,8.29
2017-11-24T13:19:14.902Z,8.38
2017-11-24T13:20:20.946Z,8.13
2017-11-24T13:21:25.806Z,8.23
2017-11-24T13:22:31.260Z,8.06
2017-11-24T13:23:36.614Z,8.16
2017-11-24T13:24:41.599Z,8.09
2017-11-24T13:25:46.561Z,8.13
2017-11-24T13:26:51.704Z,8.17
2017-11-24T13:27:56.460Z,7.98
2017-11-24T13:29:01.835Z,8.16
2017-11-24T13:30:07.456Z,7.98
2017-11-24T13:31:12.736Z,8.14
2017-11-24T13:32:17.972Z,8.25
2017-11-24T13:33:23.085Z,8.08
2017-11-24T13:34:27.858Z,7.98
2017-11-24T13:35:32.535Z,7.87
2017-11-24T13:36:37.206Z,7.92
2017-11-24T13:37:42.542Z,7.92
2017-11-24T13:38:47.812Z,7.90
2017-11-24T13:39:52.900Z,8.08
2017-11-24T13:40:58.178Z,7.84
2017-11-24T13:42:03.355Z,7.90
2017-11-24T13:43:08.967Z,7.93
2017-11-24T13:44:14.299Z,7.77
2017-11-24T13:45:19.608Z,7.85
2017-11-24T13:46:24.726Z,7.80
2017-11-24T13:47:29.934Z,7.66
2017-11-24T13:48:34.739Z,7.92
2017-11-24T13:49:40.525Z,7.77
2017-11-24T13:50:45.668Z,7.80
2017-11-24T13:51:50.769Z,7.83
2017-11-24T13:52:55.793Z,7.91
2017-11-24T13:54:01.808Z,7.97
2017-11-24T13:55:06.869Z,7.89
2017-11-24T13:56:12.499Z,8.00
2017-11-24T13:57:17.684Z,7.88
2017-11-24T13:58:22.684Z,8.08
2017-11-24T13:59:27.874Z,7.98
2017-11-24T14:00:32.748Z,7.84
2017-11-24T14:01:37.967Z,7.92
2017-11-24T14:02:43.327Z,7.91
2017-11-24T14:03:49.627Z,8.00
2017-11-24T14:04:54.858Z,7.95
2017-11-24T14:06:00.088Z,7.94
2017-11-24T14:07:06.809Z,7.97
2017-11-24T14:08:11.966Z,8.08
2017-11-24T14:09:18.135Z,8.12
2017-11-24T14:10:23.453Z,7.87
2017-11-24T14:11:28.763Z,7.79
2017-11-24T14:12:34.130Z,8.00
2017-11-24T14:13:39.241Z,7.98
2017-11-24T14:14:44.643Z,7.76
2017-11-24T14:15:50.117Z,7.76
2017-11-24T14:16:55.409Z,7.55
2017-11-24T14:18:00.805Z,7.71
2017-11-24T14:19:06.330Z,7.80
2017-11-24T14:20:11.637Z,7.77
2017-11-24T14:21:16.872Z,7.95
2017-11-24T14:22:22.501Z,7.97
2017-11-24T14:23:28.454Z,7.86
2017-11-24T14:24:33.882Z,7.68
2017-11-24T14:25:39.424Z,7.81
2017-11-24T14:26:44.623Z,7.89
2017-11-24T14:27:50.462Z,7.89
2017-11-24T14:28:56.990Z,7.64
2017-11-24T14:30:02.492Z,7.73
2017-11-24T14:31:08.071Z,7.72
2017-11-24T14:32:13.254Z,7.81
2017-11-24T14:33:18.484Z,7.82
2017-11-24T14:34:23.740Z,7.90
2017-11-24T14:35:29.462Z,7.72
2017-11-24T14:36:34.720Z,7.68
2017-11-24T14:37:40.123Z,7.60
2017-11-24T14:38:45.403Z,7.83
2017-11-24T14:39:50.794Z,7.68
2017-11-24T14:40:58.173Z,7.88
2017-11-24T14:42:03.985Z,7.94
2017-11-24T14:43:09.393Z,7.86
2017-11-24T14:44:14.800Z,7.79
2017-11-24T14:45:19.981Z,7.66
2017-11-24T14:46:25.211Z,7.86
2017-11-24T14:47:30.808Z,7.88
2017-11-24T14:48:36.392Z,7.83
2017-11-24T14:49:42.505Z,7.91
2017-11-24T14:50:47.665Z,8.00
2017-11-24T14:51:53.033Z,8.06
2017-11-24T14:52:58.199Z,8.07
2017-11-24T14:54:03.593Z,7.90
2017-11-24T14:55:09.584Z,7.89
2017-11-24T14:56:15.142Z,7.84
2017-11-24T14:57:20.355Z,7.63
2017-11-24T14:58:25.644Z,7.78
2017-11-24T14:59:31.593Z,7.81
2017-11-24T15:00:36.778Z,7.76
2017-11-24T15:01:42.314Z,7.80
2017-11-24T15:02:47.815Z,7.89
2017-11-24T15:03:53.117Z,7.76
2017-11-24T15:04:58.288Z,7.92
2017-11-24T15:06:06.278Z,7.58
2017-11-24T15:07:11.934Z,7.75
2017-11-24T15:08:17.937Z,7.59
2017-11-24T15:09:23.557Z,7.50
2017-11-24T15:10:29.039Z,7.41
2017-11-24T15:11:34.309Z,7.59
2017-11-24T15:12:39.844Z,7.49
2017-11-24T15:13:46.293Z,7.60
2017-11-24T15:14:52.306Z,7.51
2017-11-24T15:15:57.514Z,7.39
2017-11-24T15:17:02.921Z,7.44
2017-11-24T15:18:08.223Z,7.64
2017-11-24T15:19:13.572Z,7.36
2017-11-24T15:20:18.906Z,7.48
2017-11-24T15:21:24.849Z,7.43
2017-11-24T15:22:30.215Z,7.50
2017-11-24T15:23:35.726Z,7.28
2017-11-24T15:24:41.183Z,7.53
2017-11-24T15:25:46.609Z,7.49
2017-11-24T15:26:52.134Z,7.39
2017-11-24T15:27:57.877Z,7.61
2017-11-24T15:29:03.543Z,7.33
2017-11-24T15:30:08.940Z,7.38
2017-11-24T15:31:15.518Z,7.38
2017-11-24T15:32:20.865Z,7.53
2017-11-24T15:33:26.214Z,7.25
2017-11-24T15:34:32.986Z,7.42
2017-11-24T15:35:39.242Z,7.23
2017-11-24T15:36:44.486Z,7.43
2017-11-24T15:37:49.968Z,7.39
2017-11-24T15:38:55.278Z,7.47
2017-11-24T15:40:00.718Z,7.30
2017-11-24T15:41:07.106Z,7.53
2017-11-24T15:42:12.238Z,7.32
2017-11-24T15:43:17.659Z,7.38
2017-11-24T15:44:23.329Z,7.46
2017-11-24T15:45:28.770Z,7.40
2017-11-24T15:46:34.116Z,7.13
2017-11-24T15:47:40.159Z,7.13
2017-11-24T15:48:45.370Z,7.04
2017-11-24T15:49:50.551Z,7.27
2017-11-24T15:50:55.665Z,7.32
2017-11-24T15:52:01.771Z,7.32
2017-11-24T15:53:06.946Z,7.34
2017-11-24T15:54:13.514Z,7.45
2017-11-24T15:55:18.916Z,7.42
2017-11-24T15:56:24.096Z,7.57